createdAt,value
2022-08-03T00:00:27.207Z,2.00
2022-08-03T00:02:54.073Z,1.47
2022-08-03T00:05:21.102Z,2.60
2022-08-03T00:07:48.619Z,2.00
2022-08-03T00:10:17.298Z,1.60
2022-08-03T00:12:44.208Z,1.90
2022-08-03T00:15:14.994Z,2.33
2022-08-03T00:17:53.417Z,2.07
2022-08-03T00:20:24.304Z,1.50
2022-08-03T00:22:51.411Z,1.90
2022-08-03T00:25:18.509Z,1.40
2022-08-03T00:27:45.571Z,2.10
2022-08-03T00:30:15.221Z,2.37
2022-08-03T00:32:44.321Z,2.03
2022-08-03T00:35:18.055Z,1.93
2022-08-03T00:37:59.057Z,1.70
2022-08-03T00:40:25.894Z,1.60
2022-08-03T00:43:00.817Z,1.40
2022-08-03T00:45:29.955Z,1.13
2022-08-03T00:47:57.411Z,1.63
2022-08-03T00:50:26.182Z,1.80
2022-08-03T00:52:56.827Z,1.80
2022-08-03T00:55:24.601Z,1.70
2022-08-03T00:57:51.920Z,1.77
2022-08-03T01:00:21.597Z,1.60
2022-08-03T01:02:49.784Z,1.50
2022-08-03T01:05:16.728Z,1.90
2022-08-03T01:08:04.118Z,1.70
2022-08-03T01:10:45.466Z,1.80
2022-08-03T01:14:01.558Z,1.80
2022-08-03T01:16:36.621Z,1.47
2022-08-03T01:19:35.686Z,1.57
2022-08-03T01:22:17.589Z,1.33
2022-08-03T01:24:53.790Z,1.20
2022-08-03T01:27:31.247Z,1.67
2022-08-03T01:30:05.260Z,1.40
2022-08-03T01:33:00.339Z,1.50
2022-08-03T01:36:07.416Z,1.47
2022-08-03T01:38:43.315Z,1.90
2022-08-03T01:41:15.566Z,1.60
2022-08-03T01:44:28.606Z,1.50
2022-08-03T01:46:33.429Z,1.50
2022-08-03T01:49:01.185Z,1.57
2022-08-03T01:51:57.839Z,1.20
2022-08-03T01:54:26.296Z,1.67
2022-08-03T01:56:56.641Z,1.60
2022-08-03T01:59:25.777Z,1.47
2022-08-03T02:02:16.065Z,1.30
2022-08-03T02:04:43.912Z,1.80
2022-08-03T02:07:11.733Z,1.60
2022-08-03T02:09:40.681Z,1.80
2022-08-03T02:12:12.200Z,1.80
2022-08-03T02:14:41.456Z,1.50
2022-08-03T02:17:09.552Z,1.87
2022-08-03T02:19:37.695Z,1.80
2022-08-03T02:22:08.258Z,1.70
2022-08-03T02:24:35.039Z,1.47
2022-08-03T02:27:06.117Z,1.50
2022-08-03T02:29:40.333Z,1.73
2022-08-03T02:32:14.386Z,1.60
2022-08-03T02:34:45.069Z,1.43
2022-08-03T02:37:12.877Z,1.50
2022-08-03T02:39:42.077Z,1.20
2022-08-03T02:42:12.691Z,1.67
2022-08-03T02:44:40.426Z,1.47
2022-08-03T02:47:10.406Z,1.50
2022-08-03T02:49:49.811Z,1.70
2022-08-03T02:52:20.409Z,1.80
2022-08-03T02:54:51.003Z,1.67
2022-08-03T02:57:19.424Z,1.37
2022-08-03T02:59:47.110Z,1.60
2022-08-03T03:02:16.152Z,1.40
2022-08-03T03:05:53.401Z,1.37
2022-08-03T03:07:33.934Z,1.40
2022-08-03T03:10:13.680Z,1.90
2022-08-03T03:12:42.014Z,1.70
2022-08-03T03:15:09.188Z,1.73
2022-08-03T03:17:37.466Z,1.43
2022-08-03T03:20:05.919Z,1.63
2022-08-03T03:22:34.292Z,2.00
2022-08-03T03:25:01.894Z,1.67
2022-08-03T03:27:29.092Z,1.80
2022-08-03T03:29:57.763Z,2.00
2022-08-03T03:32:26.240Z,1.50
2022-08-03T03:34:54.232Z,1.80
2022-08-03T03:37:23.028Z,1.90
2022-08-03T03:39:49.739Z,1.73
2022-08-03T03:42:16.721Z,1.80
2022-08-03T03:44:43.641Z,1.77
2022-08-03T03:47:10.336Z,1.70
2022-08-03T03:49:37.802Z,1.30
2022-08-03T03:52:04.768Z,1.53
2022-08-03T03:54:42.603Z,2.17
2022-08-03T03:57:10.452Z,1.60
2022-08-03T03:59:41.630Z,1.93
2022-08-03T04:02:09.642Z,1.50
2022-08-03T04:04:55.770Z,1.80
2022-08-03T04:07:43.238Z,1.67
2022-08-03T04:10:54.843Z,1.90
2022-08-03T04:13:22.871Z,1.87
2022-08-03T04:15:50.594Z,2.03
2022-08-03T04:18:18.047Z,1.77
2022-08-03T04:20:48.765Z,2.17
2022-08-03T04:23:17.542Z,1.60
2022-08-03T04:25:44.388Z,1.73
2022-08-03T04:28:30.604Z,1.70
2022-08-03T04:31:01.202Z,2.40
2022-08-03T04:33:30.728Z,2.23
2022-08-03T04:36:02.636Z,2.00
2022-08-03T04:38:33.099Z,2.00
2022-08-03T04:41:00.997Z,2.33
2022-08-03T04:43:29.325Z,1.40
2022-08-03T04:45:57.214Z,1.60
2022-08-03T04:48:24.511Z,2.03
2022-08-03T04:50:51.720Z,1.83
2022-08-03T04:53:19.530Z,2.00
2022-08-03T04:55:46.449Z,1.50
2022-08-03T04:58:13.080Z,2.00
2022-08-03T05:00:39.790Z,1.60
2022-08-03T05:03:20.468Z,2.30
2022-08-03T05:05:53.087Z,1.97
2022-08-03T05:08:28.940Z,1.60
2022-08-03T05:10:59.155Z,1.60
2022-08-03T05:13:26.147Z,1.70
2022-08-03T05:15:52.905Z,1.93
2022-08-03T05:18:19.800Z,1.40
2022-08-03T05:20:46.452Z,1.87
2022-08-03T05:23:13.146Z,1.83
2022-08-03T05:25:39.845Z,1.70
2022-08-03T05:28:12.855Z,2.13
2022-08-03T05:30:39.617Z,1.83
2022-08-03T05:33:06.348Z,1.50
2022-08-03T05:36:01.319Z,2.13
2022-08-03T05:38:28.210Z,1.93
2022-08-03T05:41:22.197Z,1.50
2022-08-03T05:43:45.068Z,1.90
2022-08-03T05:46:13.226Z,1.87
2022-08-03T05:48:40.487Z,1.80
2022-08-03T05:51:11.209Z,2.00
2022-08-03T05:53:38.498Z,1.50
2022-08-03T05:56:15.130Z,2.03
2022-08-03T05:58:44.583Z,1.80
2022-08-03T06:01:11.778Z,1.73
2022-08-03T06:03:38.483Z,1.50
2022-08-03T06:06:05.207Z,1.63
2022-08-03T06:08:31.965Z,1.70
2022-08-03T06:10:58.793Z,1.60
2022-08-03T06:13:25.463Z,2.07
2022-08-03T06:15:52.288Z,2.03
2022-08-03T06:18:19.005Z,1.47
2022-08-03T06:20:47.065Z,1.33
2022-08-03T06:23:17.667Z,2.00
2022-08-03T06:25:45.131Z,1.70
2022-08-03T06:28:35.397Z,2.10
2022-08-03T06:31:01.096Z,1.90
2022-08-03T06:33:48.476Z,1.90
2022-08-03T06:36:15.130Z,1.60
2022-08-03T06:38:41.830Z,1.43
2022-08-03T06:41:08.470Z,1.80
2022-08-03T06:43:37.657Z,1.60
2022-08-03T06:46:05.613Z,2.03
2022-08-03T06:48:32.477Z,1.53
2022-08-03T06:50:59.303Z,1.30
2022-08-03T06:53:26.251Z,1.73
2022-08-03T06:55:55.079Z,1.50
2022-08-03T06:58:22.712Z,1.63
2022-08-03T07:00:49.504Z,1.47
2022-08-03T07:03:16.734Z,1.43
2022-08-03T07:05:45.624Z,1.43
2022-08-03T07:08:12.415Z,1.40
2022-08-03T07:10:39.297Z,1.57
2022-08-03T07:13:06.244Z,1.50
2022-08-03T07:15:53.999Z,1.10
2022-08-03T07:18:29.210Z,1.20
2022-08-03T07:20:57.407Z,1.47
2022-08-03T07:23:24.240Z,1.47
2022-08-03T07:25:51.065Z,1.30
2022-08-03T07:28:17.953Z,1.50
2022-08-03T07:30:44.669Z,1.57
2022-08-03T07:33:11.550Z,1.33
2022-08-03T07:35:38.583Z,1.20
2022-08-03T07:38:05.760Z,1.57
2022-08-03T07:40:32.925Z,1.23
2022-08-03T07:43:00.407Z,1.23
2022-08-03T07:45:27.118Z,1.00
2022-08-03T07:47:54.353Z,1.13
2022-08-03T07:50:22.303Z,1.10
2022-08-03T07:52:50.028Z,1.27
2022-08-03T07:55:22.313Z,1.40
2022-08-03T07:58:12.251Z,1.03
2022-08-03T08:00:39.429Z,1.10
2022-08-03T08:03:06.308Z,1.20
2022-08-03T08:05:33.911Z,1.10
2022-08-03T08:08:04.731Z,1.10
2022-08-03T08:10:32.858Z,1.10
2022-08-03T08:12:59.879Z,1.20
2022-08-03T08:15:26.570Z,1.53
2022-08-03T08:17:56.351Z,1.17
2022-08-03T08:20:30.514Z,1.30
2022-08-03T08:23:03.534Z,1.33
2022-08-03T08:25:46.581Z,1.50
2022-08-03T08:28:30.528Z,1.07
2022-08-03T08:31:00.003Z,1.07
2022-08-03T08:33:37.236Z,1.50
2022-08-03T08:36:14.815Z,2.87
2022-08-03T08:38:42.649Z,1.10
2022-08-03T08:41:11.391Z,1.13
2022-08-03T08:43:38.305Z,1.50
2022-08-03T08:46:08.190Z,1.20
2022-08-03T08:48:40.264Z,1.10
2022-08-03T08:51:08.898Z,0.80
2022-08-03T08:53:37.632Z,1.10
2022-08-03T08:56:05.365Z,1.03
2022-08-03T08:58:38.658Z,1.17
2022-08-03T09:01:05.866Z,0.90
2022-08-03T09:03:36.036Z,1.10
2022-08-03T09:06:03.820Z,0.90
2022-08-03T09:08:33.960Z,0.80
2022-08-03T09:11:01.845Z,0.90
2022-08-03T09:13:29.312Z,1.20
2022-08-03T09:16:22.192Z,0.93
2022-08-03T09:18:55.542Z,0.83
2022-08-03T09:21:32.784Z,1.00
2022-08-03T09:24:04.164Z,0.90
2022-08-03T09:26:32.340Z,1.00
2022-08-03T09:29:06.000Z,0.97
2022-08-03T09:31:43.207Z,0.93
2022-08-03T09:34:16.080Z,0.77
2022-08-03T09:36:45.922Z,1.00
2022-08-03T09:39:40.683Z,0.93
2022-08-03T09:42:14.658Z,1.00
2022-08-03T09:44:46.927Z,0.80
2022-08-03T09:47:15.636Z,1.10
2022-08-03T09:49:55.967Z,0.80
2022-08-03T09:52:39.050Z,0.80
2022-08-03T09:55:23.557Z,0.90
2022-08-03T09:58:09.416Z,0.80
2022-08-03T10:00:56.896Z,0.70
2022-08-03T10:03:25.155Z,0.83
2022-08-03T10:05:57.490Z,1.40
2022-08-03T10:08:26.229Z,0.63
2022-08-03T10:10:58.590Z,0.90
2022-08-03T10:13:25.607Z,1.10
2022-08-03T10:16:22.546Z,1.00
2022-08-03T10:18:38.963Z,1.00
2022-08-03T10:21:10.334Z,0.70
2022-08-03T10:23:38.766Z,0.83
2022-08-03T10:26:08.172Z,0.93
2022-08-03T10:28:44.696Z,0.80
2022-08-03T10:31:14.235Z,1.00
2022-08-03T10:33:50.971Z,1.00
2022-08-03T10:36:22.894Z,0.80
2022-08-03T10:38:53.158Z,0.83
2022-08-03T10:41:26.784Z,0.83
2022-08-03T10:44:02.238Z,1.07
2022-08-03T10:46:29.289Z,1.00
2022-08-03T10:48:57.371Z,1.03
2022-08-03T10:51:24.989Z,0.87
2022-08-03T10:53:55.409Z,0.90
2022-08-03T10:56:53.426Z,0.87
2022-08-03T10:59:47.308Z,0.93
2022-08-03T11:02:17.909Z,0.90
2022-08-03T11:04:47.354Z,1.10
2022-08-03T11:07:20.699Z,1.00
2022-08-03T11:09:49.994Z,0.63
2022-08-03T11:12:31.406Z,0.60
2022-08-03T11:15:08.878Z,1.07
2022-08-03T11:17:46.252Z,0.60
2022-08-03T11:20:46.024Z,1.10
2022-08-03T11:23:13.345Z,0.80
2022-08-03T11:26:10.775Z,0.90
2022-08-03T11:28:39.004Z,0.97
2022-08-03T11:31:51.695Z,1.00
2022-08-03T11:34:18.742Z,0.90
2022-08-03T11:37:24.597Z,1.07
2022-08-03T11:39:55.345Z,0.90
2022-08-03T11:42:26.218Z,0.93
2022-08-03T11:44:56.770Z,1.00
2022-08-03T11:47:26.954Z,0.77
2022-08-03T11:50:00.255Z,0.90
2022-08-03T11:52:29.007Z,1.00
2022-08-03T11:54:56.413Z,1.30
2022-08-03T11:59:12.805Z,0.87
2022-08-03T12:00:31.290Z,0.90
2022-08-03T12:03:09.622Z,1.03
2022-08-03T12:05:51.151Z,0.73
2022-08-03T12:08:28.171Z,0.97
2022-08-03T12:10:56.700Z,0.80
2022-08-03T12:14:26.825Z,0.90
2022-08-03T12:16:19.557Z,0.77
2022-08-03T12:18:54.991Z,0.77
2022-08-03T12:21:24.567Z,0.80
2022-08-03T12:23:51.596Z,0.90
2022-08-03T12:26:18.287Z,1.00
2022-08-03T12:28:49.968Z,0.97
2022-08-03T12:31:16.974Z,1.20
2022-08-03T12:33:58.965Z,0.90
2022-08-03T12:36:26.900Z,1.10
2022-08-03T12:39:07.885Z,0.77
2022-08-03T12:41:39.757Z,0.60
2022-08-03T12:44:08.413Z,0.87
2022-08-03T12:46:47.390Z,1.00
2022-08-03T12:49:17.131Z,1.10
2022-08-03T12:51:43.811Z,1.23
2022-08-03T12:54:26.352Z,0.83
2022-08-03T12:57:04.393Z,1.20
2022-08-03T12:59:35.277Z,0.93
2022-08-03T13:02:16.656Z,1.10
2022-08-03T13:04:45.849Z,0.77
2022-08-03T13:07:14.460Z,0.87
2022-08-03T13:09:49.637Z,0.77
2022-08-03T13:12:21.829Z,1.00
2022-08-03T13:14:51.946Z,1.10
2022-08-03T13:17:19.486Z,0.97
2022-08-03T13:19:47.744Z,0.70
2022-08-03T13:22:26.062Z,0.93
2022-08-03T13:24:57.798Z,1.03
2022-08-03T13:28:03.565Z,1.00
2022-08-03T13:30:12.480Z,0.87
2022-08-03T13:32:39.631Z,1.00
2022-08-03T13:35:07.544Z,0.80
2022-08-03T13:37:34.681Z,0.70
2022-08-03T13:40:04.784Z,0.90
2022-08-03T13:42:39.073Z,0.80
2022-08-03T13:45:06.502Z,0.93
2022-08-03T13:47:33.181Z,1.20
2022-08-03T13:50:02.848Z,0.70
2022-08-03T13:52:32.396Z,0.87
2022-08-03T13:54:59.798Z,0.90
2022-08-03T13:58:03.795Z,0.83
2022-08-03T14:00:16.105Z,0.80
2022-08-03T14:02:55.346Z,1.00
2022-08-03T14:05:25.216Z,0.90
2022-08-03T14:07:51.967Z,0.70
2022-08-03T14:10:23.503Z,0.70
2022-08-03T14:12:50.181Z,0.90
2022-08-03T14:15:16.877Z,0.80
2022-08-03T14:17:49.990Z,0.70
2022-08-03T14:20:38.836Z,0.67
2022-08-03T14:23:03.780Z,0.70
2022-08-03T14:25:31.629Z,0.93
2022-08-03T14:28:10.372Z,1.10
2022-08-03T14:30:37.367Z,0.80
2022-08-03T14:33:04.080Z,0.87
2022-08-03T14:35:30.783Z,0.63
2022-08-03T14:37:57.424Z,0.80
2022-08-03T14:40:24.216Z,0.90
2022-08-03T14:42:50.893Z,0.90
2022-08-03T14:45:19.934Z,0.80
2022-08-03T14:50:29.294Z,0.77
2022-08-03T14:50:42.016Z,0.90
2022-08-03T14:53:09.868Z,1.10
2022-08-03T14:55:38.014Z,0.80
2022-08-03T14:58:18.604Z,1.00
2022-08-03T15:00:48.912Z,1.00
2022-08-03T15:03:17.015Z,0.67
2022-08-03T15:05:44.591Z,1.13
2022-08-03T15:08:11.345Z,0.83
2022-08-03T15:10:44.535Z,1.00
2022-08-03T15:13:12.929Z,1.10
2022-08-03T15:15:40.710Z,1.20
2022-08-03T15:18:07.648Z,0.97
2022-08-03T15:20:49.631Z,0.90
2022-08-03T15:23:17.975Z,1.10
2022-08-03T15:26:28.198Z,1.10
2022-08-03T15:28:32.818Z,1.07
2022-08-03T15:30:59.878Z,0.90
2022-08-03T15:33:26.613Z,0.60
2022-08-03T15:35:53.584Z,1.03
2022-08-03T15:38:26.043Z,0.90
2022-08-03T15:40:54.544Z,0.80
2022-08-03T15:43:22.240Z,0.97
2022-08-03T15:45:54.613Z,0.97
2022-08-03T15:48:35.641Z,1.10
2022-08-03T15:51:02.367Z,1.20
2022-08-03T15:53:29.098Z,1.00
2022-08-03T15:55:55.755Z,1.00
2022-08-03T15:59:07.661Z,1.43
2022-08-03T16:01:09.297Z,1.00
2022-08-03T16:03:36.040Z,0.90
2022-08-03T16:06:04.315Z,1.10
2022-08-03T16:08:31.774Z,1.00
2022-08-03T16:10:58.855Z,1.00
2022-08-03T16:14:13.612Z,0.90
2022-08-03T16:16:13.826Z,1.20
2022-08-03T16:18:40.976Z,1.27
2022-08-03T16:21:07.670Z,1.13
2022-08-03T16:23:39.595Z,0.90
2022-08-03T16:26:09.449Z,1.10
2022-08-03T16:28:38.099Z,1.07
2022-08-03T16:31:06.163Z,1.10
2022-08-03T16:33:33.246Z,1.13
2022-08-03T16:35:59.997Z,1.10
2022-08-03T16:38:26.639Z,1.20
2022-08-03T16:40:53.365Z,1.30
2022-08-03T16:43:22.101Z,1.30
2022-08-03T16:45:49.198Z,1.17
2022-08-03T16:48:16.866Z,0.80
2022-08-03T16:50:44.449Z,1.17
2022-08-03T16:53:15.642Z,1.20
2022-08-03T16:55:53.164Z,1.10
2022-08-03T16:58:34.253Z,1.30
2022-08-03T17:01:20.765Z,1.10
2022-08-03T17:04:02.117Z,1.20
2022-08-03T17:06:36.053Z,1.40
2022-08-03T17:09:09.482Z,1.17
2022-08-03T17:11:46.833Z,1.00
2022-08-03T17:14:21.788Z,1.03
2022-08-03T17:16:52.597Z,1.23
2022-08-03T17:19:23.207Z,1.17
2022-08-03T17:22:01.406Z,0.90
2022-08-03T17:24:41.414Z,1.10
2022-08-03T17:27:18.490Z,1.30
2022-08-03T17:30:01.477Z,1.00
2022-08-03T17:32:32.529Z,1.10
2022-08-03T17:35:00.852Z,1.03
2022-08-03T17:37:58.555Z,1.07
2022-08-03T17:40:17.614Z,1.33
2022-08-03T17:42:46.210Z,1.20
2022-08-03T17:45:17.899Z,1.10
2022-08-03T17:47:46.111Z,0.97
2022-08-03T17:50:33.776Z,1.13
2022-08-03T17:53:23.698Z,1.20
2022-08-03T17:56:40.838Z,1.30
2022-08-03T17:59:51.285Z,1.03
2022-08-03T18:02:51.570Z,1.10
2022-08-03T18:05:21.999Z,1.20
2022-08-03T18:07:59.051Z,1.03
2022-08-03T18:10:28.262Z,1.20
2022-08-03T18:13:02.860Z,0.90
2022-08-03T18:15:58.928Z,1.10
2022-08-03T18:18:43.585Z,1.20
2022-08-03T18:21:17.113Z,1.27
2022-08-03T18:23:45.911Z,0.87
2022-08-03T18:26:17.225Z,1.07
2022-08-03T18:28:44.683Z,1.20
2022-08-03T18:31:33.156Z,1.33
2022-08-03T18:34:16.704Z,1.30
2022-08-03T18:36:50.332Z,1.30
2022-08-03T18:39:20.567Z,1.43
2022-08-03T18:41:47.276Z,1.50
2022-08-03T18:44:52.659Z,1.47
2022-08-03T18:47:17.406Z,1.50
2022-08-03T18:49:46.827Z,1.40
2022-08-03T18:52:22.817Z,1.20
2022-08-03T18:55:19.841Z,1.10
2022-08-03T18:58:18.368Z,1.20
2022-08-03T19:00:58.454Z,1.50
2022-08-03T19:03:43.067Z,1.60
2022-08-03T19:06:19.859Z,1.30
2022-08-03T19:09:09.613Z,1.70
2022-08-03T19:12:13.982Z,1.50
2022-08-03T19:14:44.507Z,1.33
2022-08-03T19:17:13.259Z,1.63
2022-08-03T19:19:46.284Z,1.60
2022-08-03T19:22:16.257Z,1.53
2022-08-03T19:24:46.528Z,1.90
2022-08-03T19:27:14.205Z,1.63
2022-08-03T19:29:59.436Z,1.63
2022-08-03T19:32:31.887Z,1.90
2022-08-03T19:35:00.888Z,1.53
2022-08-03T19:37:38.292Z,1.80
2022-08-03T19:40:10.758Z,2.23
2022-08-03T19:42:43.388Z,1.27
2022-08-03T19:45:15.211Z,1.60
2022-08-03T19:47:48.028Z,1.60
2022-08-03T19:50:15.858Z,1.97
2022-08-03T19:52:46.721Z,1.50
2022-08-03T19:55:15.680Z,1.50
2022-08-03T19:57:45.599Z,1.60
2022-08-03T20:00:13.938Z,1.53
2022-08-03T20:02:41.457Z,2.00
2022-08-03T20:05:14.837Z,1.93
2022-08-03T20:07:42.640Z,1.90
2022-08-03T20:10:15.938Z,2.10
2022-08-03T20:12:44.586Z,1.73
2022-08-03T20:15:11.620Z,1.93
2022-08-03T20:17:55.994Z,1.80
2022-08-03T20:20:30.735Z,1.67
2022-08-03T20:22:59.229Z,1.70
2022-08-03T20:25:38.885Z,1.63
2022-08-03T20:28:13.590Z,1.90
2022-08-03T20:30:43.725Z,1.90
2022-08-03T20:33:10.665Z,2.23
2022-08-03T20:35:37.478Z,1.90
2022-08-03T20:38:04.157Z,1.90
2022-08-03T20:40:34.032Z,2.23
2022-08-03T20:43:01.614Z,1.67
2022-08-03T20:46:00.598Z,2.50
2022-08-03T20:48:18.026Z,2.13
2022-08-03T20:50:49.433Z,1.73
2022-08-03T20:53:41.373Z,1.80
2022-08-03T20:56:04.141Z,1.80
2022-08-03T20:58:32.533Z,1.60
2022-08-03T21:01:00.068Z,1.90
2022-08-03T21:03:41.046Z,1.70
2022-08-03T21:06:17.834Z,1.60
2022-08-03T21:09:00.344Z,1.50
2022-08-03T21:11:41.828Z,1.73
2022-08-03T21:14:37.903Z,1.60
2022-08-03T21:17:14.130Z,1.83
2022-08-03T21:19:52.128Z,1.70
2022-08-03T21:22:22.540Z,1.97
2022-08-03T21:24:55.867Z,2.10
2022-08-03T21:27:23.951Z,1.70
2022-08-03T21:29:53.001Z,1.60
2022-08-03T21:32:32.847Z,1.70
2022-08-03T21:35:00.678Z,1.90
2022-08-03T21:37:28.507Z,1.60
2022-08-03T21:39:56.183Z,1.57
2022-08-03T21:42:24.075Z,1.93
2022-08-03T21:44:54.341Z,2.20
2022-08-03T21:47:22.700Z,1.80
2022-08-03T21:50:08.385Z,2.10
2022-08-03T21:52:40.592Z,2.10
2022-08-03T21:55:07.788Z,1.70
2022-08-03T21:57:38.274Z,1.87
2022-08-03T22:00:12.145Z,2.40
2022-08-03T22:02:42.823Z,2.20
2022-08-03T22:05:09.861Z,1.70
2022-08-03T22:07:43.167Z,1.80
2022-08-03T22:10:11.123Z,1.77
2022-08-03T22:12:38.949Z,1.70
2022-08-03T22:15:09.365Z,1.60
2022-08-03T22:17:55.811Z,1.80
2022-08-03T22:20:24.719Z,2.20
2022-08-03T22:22:56.609Z,1.70
2022-08-03T22:25:28.505Z,1.90
2022-08-03T22:27:55.554Z,1.73
2022-08-03T22:30:22.303Z,1.83
2022-08-03T22:32:51.825Z,2.00
2022-08-03T22:35:21.059Z,2.47
2022-08-03T22:37:52.276Z,1.97
2022-08-03T22:40:19.644Z,1.73
2022-08-03T22:42:49.355Z,1.40
2022-08-03T22:46:08.486Z,2.57
2022-08-03T22:48:07.234Z,1.70
2022-08-03T22:50:34.620Z,1.63
2022-08-03T22:53:01.792Z,1.90
2022-08-03T22:55:28.583Z,1.83
2022-08-03T22:57:55.529Z,2.10
2022-08-03T23:00:23.604Z,2.03
2022-08-03T23:02:53.581Z,2.00
2022-08-03T23:06:01.019Z,1.70
2022-08-03T23:08:15.968Z,1.87
2022-08-03T23:10:47.222Z,1.90
2022-08-03T23:13:17.512Z,1.60
2022-08-03T23:15:51.546Z,2.00
2022-08-03T23:18:20.783Z,1.83
2022-08-03T23:20:51.777Z,1.80
2022-08-03T23:23:19.802Z,2.00
2022-08-03T23:25:49.507Z,1.60
2022-08-03T23:28:16.796Z,2.10
2022-08-03T23:30:44.714Z,1.70
2022-08-03T23:33:16.306Z,1.93
2022-08-03T23:36:17.213Z,2.30
2022-08-03T23:38:48.369Z,2.17
2022-08-03T23:41:17.466Z,2.10
2022-08-03T23:43:51.723Z,1.97
2022-08-03T23:46:22.056Z,1.97
2022-08-03T23:48:49.374Z,2.20
2022-08-03T23:51:25.442Z,1.90
2022-08-03T23:54:02.107Z,1.90
2022-08-03T23:56:44.267Z,1.70
2022-08-03T23:59:35.941Z,2.40
